Time;durP1;ratioP1;P1;durP2;ratioP2;P2;SDS_P1;SDS_P2;PMS_P1;PMS_P2;Temp;Humidity;BMP_temperature;BMP_pressure;BME280_temperature;BME280_humidity;BME280_pressure;Samples;Min_cycle;Max_cycle;Signal;HPM_P1;HPM_P2
2023/04/10 00:00:11;;;;;;;20.15;12.20;;;;;;;;;;12955756;22;19996;-78
2023/04/10 00:05:11;;;;;;;16.92;10.55;;;;;;;;;;12952231;22;20076;-76
2023/04/10 00:10:14;;;;;;;19.10;11.68;;;;;;;;;;12953623;22;20008;-80
2023/04/10 00:15:15;;;;;;;19.45;11.88;;;;;;;;;;12943446;23;20040;-75
2023/04/10 00:20:17;;;;;;;22.98;12.70;;;;;;;;;;12880483;23;20495;-77
2023/04/10 00:25:18;;;;;;;17.25;10.70;;;;;;;;;;12876756;23;20043;-81
2023/04/10 00:30:18;;;;;;;17.92;11.63;;;;;;;;;;12877059;23;20078;-78
2023/04/10 00:35:19;;;;;;;20.33;11.75;;;;;;;;;;12906182;23;20047;-73
2023/04/10 00:40:20;;;;;;;22.98;13.20;;;;;;;;;;12854852;23;20587;-78
2023/04/10 00:45:21;;;;;;;20.17;11.88;;;;;;;;;;12882141;23;20016;-80
2023/04/10 00:50:22;;;;;;;20.58;12.48;;;;;;;;;;12913530;23;20460;-76
2023/04/10 00:55:22;;;;;;;21.15;12.75;;;;;;;;;;12886704;23;20055;-74
2023/04/10 01:00:25;;;;;;;19.30;11.27;;;;;;;;;;12891958;23;20039;-77
2023/04/10 01:05:30;;;;;;;20.17;11.57;;;;;;;;;;12893920;22;20508;-76
2023/04/10 01:10:33;;;;;;;18.33;11.43;;;;;;;;;;12888008;23;20016;-76
2023/04/10 01:15:34;;;;;;;;;;;;;;;;;;12914562;23;20464;-77
2023/04/10 01:20:36;;;;;;;21.08;11.75;;;;;;;;;;12858099;23;19922;-75
2023/04/10 01:26:00;;;;;;;23.13;13.07;;;;;;;;;;12879167;23;20074;-78
2023/04/10 01:31:01;;;;;;;22.00;11.88;;;;;;;;;;12837306;23;20047;-75
2023/04/10 01:36:03;;;;;;;16.98;10.63;;;;;;;;;;12878337;23;20036;-78
2023/04/10 01:41:04;;;;;;;18.85;11.18;;;;;;;;;;12905247;23;20023;-76
2023/04/10 01:46:05;;;;;;;23.75;13.63;;;;;;;;;;12875827;23;20557;-76
2023/04/10 01:51:06;;;;;;;18.00;11.57;;;;;;;;;;12905253;23;20111;-75
2023/04/10 01:56:08;;;;;;;21.55;11.27;;;;;;;;;;12905006;22;20024;-73
2023/04/10 02:01:20;;;;;;;21.70;11.75;;;;;;;;;;12879369;23;20016;-78
2023/04/10 02:06:40;;;;;;;24.48;13.05;;;;;;;;;;12891182;22;20020;-77
2023/04/10 02:11:42;;;;;;;20.80;13.05;;;;;;;;;;12883025;23;20026;-75
2023/04/10 02:16:43;;;;;;;21.23;12.48;;;;;;;;;;12881169;22;20079;-74
2023/04/10 02:21:45;;;;;;;20.63;11.52;;;;;;;;;;12907368;23;20378;-74
2023/04/10 02:26:49;;;;;;;25.80;13.40;;;;;;;;;;12911413;23;20061;-81
2023/04/10 02:31:50;;;;;;;24.17;13.30;;;;;;;;;;12880253;23;20016;-75
2023/04/10 02:36:51;;;;;;;27.95;13.75;;;;;;;;;;12905703;23;20421;-76
2023/04/10 02:41:52;;;;;;;20.98;11.90;;;;;;;;;;12878132;23;20024;-74
2023/04/10 02:46:52;;;;;;;24.42;13.68;;;;;;;;;;12880250;22;20016;-75
2023/04/10 02:51:55;;;;;;;25.93;14.67;;;;;;;;;;12875419;23;20016;-74
2023/04/10 02:56:56;;;;;;;26.17;13.65;;;;;;;;;;12902158;23;20602;-76
2023/04/10 03:01:58;;;;;;;23.95;13.52;;;;;;;;;;12903683;23;20012;-76
2023/04/10 03:07:01;;;;;;;23.88;13.68;;;;;;;;;;12875483;22;20145;-78
2023/04/10 03:12:02;;;;;;;21.92;13.10;;;;;;;;;;12875239;22;20020;-76
2023/04/10 03:17:02;;;;;;;21.60;12.88;;;;;;;;;;12903717;22;20011;-77
2023/04/10 03:22:03;;;;;;;26.33;14.35;;;;;;;;;;12852986;23;20090;-76
2023/04/10 03:27:05;;;;;;;27.60;14.38;;;;;;;;;;12878336;23;20382;-79
2023/04/10 03:32:07;;;;;;;;;;;;;;;;;;12878226;23;20024;-76
2023/04/10 03:37:11;;;;;;;25.92;14.52;;;;;;;;;;12878762;23;19919;-77
2023/04/10 03:42:12;;;;;;;23.95;13.90;;;;;;;;;;12903079;23;20103;-84
2023/04/10 03:47:14;;;;;;;23.08;13.30;;;;;;;;;;12875972;23;20019;-75
2023/04/10 03:52:22;;;;;;;21.02;12.57;;;;;;;;;;12875141;22;20428;-76
2023/04/10 03:57:23;;;;;;;25.48;13.90;;;;;;;;;;12876027;23;20012;-77
2023/04/10 04:02:25;;;;;;;22.75;13.88;;;;;;;;;;12875232;23;20012;-74
2023/04/10 04:07:27;;;;;;;23.77;13.33;;;;;;;;;;12856012;22;20012;-74
2023/04/10 04:12:47;;;;;;;27.40;15.18;;;;;;;;;;12885143;23;20047;-74
2023/04/10 04:18:08;;;;;;;24.27;13.32;;;;;;;;;;12863767;23;20034;-74
2023/04/10 04:23:20;;;;;;;29.02;14.85;;;;;;;;;;12885758;23;20024;-77
2023/04/10 04:28:38;;;;;;;25.85;14.93;;;;;;;;;;12886569;23;20024;-75
2023/04/10 04:33:58;;;;;;;23.08;14.07;;;;;;;;;;12908681;23;20020;-75
2023/04/10 04:39:01;;;;;;;21.10;13.15;;;;;;;;;;12912298;23;20090;-76
2023/04/10 04:44:20;;;;;;;21.45;12.27;;;;;;;;;;12908415;23;20016;-75
2023/04/10 04:49:41;;;;;;;22.90;13.23;;;;;;;;;;12906016;23;20047;-75
2023/04/10 04:54:57;;;;;;;27.20;14.05;;;;;;;;;;12857504;23;20031;-74
2023/04/10 05:00:26;;;;;;;23.85;14.60;;;;;;;;;;12878621;22;20438;-76
2023/04/10 05:05:44;;;;;;;26.10;13.93;;;;;;;;;;12871716;22;20024;-74
2023/04/10 05:10:54;;;;;;;27.77;15.20;;;;;;;;;;12847860;23;20020;-74
2023/04/10 05:16:09;;;;;;;27.50;14.90;;;;;;;;;;12839114;23;20056;-76
2023/04/10 05:21:27;;;;;;;24.48;14.15;;;;;;;;;;12840404;23;20039;-74
2023/04/10 05:26:40;;;;;;;22.23;13.65;;;;;;;;;;12839384;23;20052;-75
2023/04/10 05:32:03;;;;;;;;;;;;;;;;;;12840415;23;20562;-75
2023/04/10 05:37:22;;;;;;;24.63;12.90;;;;;;;;;;12864750;23;19912;-72
2023/04/10 05:42:55;;;;;;;22.67;13.75;;;;;;;;;;12839005;23;20048;-73
2023/04/10 05:48:10;;;;;;;22.60;13.57;;;;;;;;;;12843445;23;20016;-79
2023/04/10 05:53:19;;;;;;;25.40;14.90;;;;;;;;;;12842118;23;20029;-76
2023/04/10 05:58:38;;;;;;;24.58;14.52;;;;;;;;;;12839976;23;20021;-74
2023/04/10 06:03:59;;;;;;;23.15;14.25;;;;;;;;;;12839834;23;20469;-76
2023/04/10 06:09:00;;;;;;;22.90;13.82;;;;;;;;;;12839605;23;20043;-77
2023/04/10 06:14:02;;;;;;;26.35;15.02;;;;;;;;;;12846627;23;20670;-78
2023/04/10 06:19:10;;;;;;;22.60;14.10;;;;;;;;;;12845559;23;20013;-80
2023/04/10 06:24:10;;;;;;;23.83;14.75;;;;;;;;;;12822000;23;20008;-79
2023/04/10 06:29:11;;;;;;;22.05;13.73;;;;;;;;;;12852793;23;20096;-78
2023/04/10 06:34:13;;;;;;;22.75;14.13;;;;;;;;;;12855733;23;20094;-77
2023/04/10 06:39:25;;;;;;;21.58;13.73;;;;;;;;;;12843060;23;20443;-77
2023/04/10 06:44:28;;;;;;;22.17;13.82;;;;;;;;;;12845900;23;20096;-76
2023/04/10 06:49:28;;;;;;;24.35;14.35;;;;;;;;;;12850232;23;20079;-76
2023/04/10 06:54:29;;;;;;;22.73;14.10;;;;;;;;;;12866414;23;20122;-75
2023/04/10 06:59:30;;;;;;;25.33;15.30;;;;;;;;;;12866755;23;20756;-75
2023/04/10 07:04:31;;;;;;;20.70;12.98;;;;;;;;;;12820940;23;20012;-77
2023/04/10 07:09:32;;;;;;;21.88;13.27;;;;;;;;;;12842146;23;20456;-76
2023/04/10 07:14:35;;;;;;;20.20;13.35;;;;;;;;;;12844119;23;20016;-80
2023/04/10 07:19:37;;;;;;;20.98;13.15;;;;;;;;;;12848372;23;20008;-81
2023/04/10 07:24:37;;;;;;;21.92;14.07;;;;;;;;;;12843596;23;20016;-80
2023/04/10 07:29:37;;;;;;;20.30;13.10;;;;;;;;;;12842661;23;20061;-78
2023/04/10 07:34:38;;;;;;;21.55;13.63;;;;;;;;;;12847481;23;20286;-76
2023/04/10 07:39:38;;;;;;;20.93;13.60;;;;;;;;;;12850472;23;20028;-79
2023/04/10 07:44:39;;;;;;;17.88;12.38;;;;;;;;;;12860721;23;20247;-79
2023/04/10 07:49:40;;;;;;;22.17;13.52;;;;;;;;;;12898917;23;20001;-76
2023/04/10 07:54:41;;;;;;;17.33;11.70;;;;;;;;;;12902048;22;20008;-84
2023/04/10 07:59:41;;;;;;;15.30;10.38;;;;;;;;;;12887821;22;20054;-79
2023/04/10 08:04:42;;;;;;;14.60;10.10;;;;;;;;;;12899443;23;20008;-81
2023/04/10 08:09:48;;;;;;;16.00;11.25;;;;;;;;;;12885277;22;20338;-79
2023/04/10 08:14:50;;;;;;;15.35;10.82;;;;;;;;;;12906830;22;20023;-77
2023/04/10 08:19:52;;;;;;;17.38;11.77;;;;;;;;;;12898319;23;20043;-81
2023/04/10 08:24:54;;;;;;;16.05;10.98;;;;;;;;;;12883747;23;20043;-80
2023/04/10 08:29:58;;;;;;;14.73;10.35;;;;;;;;;;12886689;23;20032;-80
2023/04/10 08:34:59;;;;;;;14.93;10.20;;;;;;;;;;12872629;23;20020;-78
2023/04/10 08:39:59;;;;;;;14.93;10.45;;;;;;;;;;12855499;23;20264;-78
2023/04/10 08:45:03;;;;;;;15.75;9.95;;;;;;;;;;12838112;23;20032;-81
2023/04/10 08:50:07;;;;;;;14.30;9.38;;;;;;;;;;12849142;23;20013;-77
2023/04/10 08:55:11;;;;;;;14.15;9.77;;;;;;;;;;12845090;23;20811;-78
2023/04/10 09:00:12;;;;;;;11.32;8.45;;;;;;;;;;12846505;23;20095;-84
2023/04/10 09:05:15;;;;;;;11.85;8.73;;;;;;;;;;12848820;23;20012;-79
2023/04/10 09:10:18;;;;;;;12.38;9.15;;;;;;;;;;12844959;23;20016;-81
2023/04/10 09:15:20;;;;;;;10.05;7.53;;;;;;;;;;12845585;23;20339;-79
2023/04/10 09:20:42;;;;;;;11.27;8.23;;;;;;;;;;12847952;23;20051;-79
2023/04/10 09:25:42;;;;;;;11.02;8.27;;;;;;;;;;12862589;23;20030;-77
2023/04/10 09:30:43;;;;;;;10.83;7.70;;;;;;;;;;12875815;23;20089;-77
2023/04/10 09:35:44;;;;;;;9.25;7.53;;;;;;;;;;12855247;23;20276;-78
2023/04/10 09:40:49;;;;;;;9.35;7.43;;;;;;;;;;12844687;23;20039;-78
2023/04/10 09:45:51;;;;;;;10.48;8.20;;;;;;;;;;12843751;23;20438;-78
2023/04/10 09:50:53;;;;;;;9.93;7.00;;;;;;;;;;12841315;23;20099;-79
2023/04/10 09:55:56;;;;;;;9.52;7.25;;;;;;;;;;12843035;23;20020;-79
2023/04/10 10:00:59;;;;;;;10.05;7.78;;;;;;;;;;12844660;23;20024;-79
2023/04/10 10:06:03;;;;;;;9.52;7.13;;;;;;;;;;12818107;23;20464;-77
2023/04/10 10:11:08;;;;;;;9.75;7.57;;;;;;;;;;12852315;23;20032;-80
2023/04/10 10:16:35;;;;;;;8.27;6.88;;;;;;;;;;12850342;23;20029;-79
2023/04/10 10:21:37;;;;;;;8.23;6.80;;;;;;;;;;12850102;23;20106;-82
2023/04/10 10:26:39;;;;;;;8.13;6.70;;;;;;;;;;12885000;23;20013;-81
2023/04/10 10:31:42;;;;;;;8.02;6.65;;;;;;;;;;12908263;22;20064;-80
2023/04/10 10:36:42;;;;;;;7.00;5.97;;;;;;;;;;12914736;22;20036;-80
2023/04/10 10:41:53;;;;;;;8.23;6.47;;;;;;;;;;12918329;22;19992;-78
2023/04/10 10:47:04;;;;;;;7.93;6.32;;;;;;;;;;12832719;23;20319;-80
2023/04/10 10:52:08;;;;;;;6.78;5.90;;;;;;;;;;12848873;23;20120;-79
2023/04/10 10:57:32;;;;;;;6.50;5.40;;;;;;;;;;12846119;23;20040;-81
2023/04/10 11:02:32;;;;;;;6.53;5.40;;;;;;;;;;12846541;23;20592;-80
2023/04/10 11:08:00;;;;;;;7.03;5.35;;;;;;;;;;12843470;23;20044;-80
2023/04/10 11:18:14;;;;;;;6.43;5.22;;;;;;;;;;12857184;23;20051;-80
2023/04/10 11:23:14;;;;;;;6.67;5.57;;;;;;;;;;12910823;23;20012;-81
2023/04/10 11:28:17;;;;;;;;;;;;;;;;;;12916147;23;20012;-83
2023/04/10 11:33:17;;;;;;;4.80;4.15;;;;;;;;;;12885537;23;19919;-81
2023/04/10 11:38:20;;;;;;;4.72;4.15;;;;;;;;;;12918250;23;20012;-82
2023/04/10 11:43:27;;;;;;;4.17;3.77;;;;;;;;;;12909393;23;20016;-83
2023/04/10 11:48:33;;;;;;;5.43;4.20;;;;;;;;;;12892574;23;20380;-83
2023/04/10 11:53:42;;;;;;;5.40;4.82;;;;;;;;;;12941332;22;20384;-79
2023/04/10 11:58:44;;;;;;;5.05;4.53;;;;;;;;;;12925373;23;20437;-80
2023/04/10 12:03:45;;;;;;;5.13;4.57;;;;;;;;;;12936534;22;20012;-84
2023/04/10 12:08:49;;;;;;;5.03;4.53;;;;;;;;;;12943272;22;20016;-87
2023/04/10 12:13:55;;;;;;;5.15;4.30;;;;;;;;;;12937456;23;20031;-81
2023/04/10 12:18:56;;;;;;;5.38;4.55;;;;;;;;;;12909867;23;20014;-83
2023/04/10 12:23:57;;;;;;;5.13;4.32;;;;;;;;;;12908709;23;20488;-82
2023/04/10 12:28:58;;;;;;;5.07;4.38;;;;;;;;;;12911380;22;20031;-82
2023/04/10 12:34:00;;;;;;;5.05;4.55;;;;;;;;;;12884303;23;20024;-83
2023/04/10 12:39:02;;;;;;;;;;;;;;;;;;12923132;23;20170;-85
2023/04/10 12:44:08;;;;;;;5.13;4.28;;;;;;;;;;12902963;23;19934;-84
2023/04/10 12:49:13;;;;;;;4.38;3.97;;;;;;;;;;12916243;22;20436;-81
2023/04/10 12:54:26;;;;;;;4.35;3.75;;;;;;;;;;12910094;23;20020;-83
2023/04/10 12:59:27;;;;;;;4.45;4.00;;;;;;;;;;12883513;23;20047;-85
2023/04/10 13:04:31;;;;;;;3.95;3.55;;;;;;;;;;12865210;22;20269;-82
2023/04/10 13:09:35;;;;;;;4.00;3.60;;;;;;;;;;12896473;23;20030;-83
2023/04/10 13:14:37;;;;;;;4.13;3.72;;;;;;;;;;12914071;23;20020;-84
2023/04/10 13:19:37;;;;;;;4.53;4.13;;;;;;;;;;12883372;23;20037;-82
2023/04/10 13:24:38;;;;;;;4.53;4.13;;;;;;;;;;12910128;23;20004;-82
2023/04/10 13:29:39;;;;;;;4.15;3.72;;;;;;;;;;12909834;23;20034;-82
2023/04/10 13:34:43;;;;;;;4.63;4.22;;;;;;;;;;12911737;23;20024;-83
2023/04/10 13:39:44;;;;;;;;;;;;;;;;;;12859841;23;20374;-81
2023/04/10 13:44:45;;;;;;;3.80;3.50;;;;;;;;;;12858737;23;19943;-83
2023/04/10 13:49:48;;;;;;;4.63;3.47;;;;;;;;;;12885290;23;20018;-84
2023/04/10 13:54:49;;;;;;;4.00;3.50;;;;;;;;;;12911581;23;20103;-82
2023/04/10 13:59:50;;;;;;;4.00;3.60;;;;;;;;;;12890600;23;20251;-83
2023/04/10 14:04:51;;;;;;;4.55;3.58;;;;;;;;;;12924658;22;20115;-81
2023/04/10 14:09:54;;;;;;;4.00;3.57;;;;;;;;;;12935969;22;20367;-82
2023/04/10 14:14:57;;;;;;;4.35;3.83;;;;;;;;;;12889144;23;20035;-81
2023/04/10 14:19:58;;;;;;;3.67;3.30;;;;;;;;;;12930567;23;20023;-81
2023/04/10 14:24:58;;;;;;;3.92;3.53;;;;;;;;;;12907239;23;20026;-83
2023/04/10 14:29:58;;;;;;;3.70;3.40;;;;;;;;;;12965570;22;20023;-81
2023/04/10 14:34:59;;;;;;;3.87;3.53;;;;;;;;;;12939061;23;20282;-79
2023/04/10 14:40:00;;;;;;;3.67;3.10;;;;;;;;;;12924347;23;20016;-82
2023/04/10 14:45:00;;;;;;;3.65;3.35;;;;;;;;;;12882506;23;20074;-81
2023/04/10 14:50:00;;;;;;;3.25;2.95;;;;;;;;;;12908721;23;20098;-79
2023/04/10 14:55:01;;;;;;;3.90;3.00;;;;;;;;;;12908825;23;20745;-81
2023/04/10 15:00:02;;;;;;;3.60;3.30;;;;;;;;;;12884943;23;20043;-84
2023/04/10 15:05:03;;;;;;;4.25;3.85;;;;;;;;;;12913575;23;20371;-79
2023/04/10 15:10:06;;;;;;;3.78;3.35;;;;;;;;;;12886354;23;20016;-78
2023/04/10 15:15:08;;;;;;;3.63;3.30;;;;;;;;;;12894513;23;20073;-83
2023/04/10 15:20:11;;;;;;;3.72;3.28;;;;;;;;;;12944863;23;20031;-82
2023/04/10 15:25:11;;;;;;;4.53;3.95;;;;;;;;;;12897479;23;20068;-86
2023/04/10 15:30:12;;;;;;;3.70;3.40;;;;;;;;;;12954925;23;20016;-85
2023/04/10 15:35:16;;;;;;;4.35;3.75;;;;;;;;;;12943934;22;20046;-80
2023/04/10 15:40:16;;;;;;;4.55;3.70;;;;;;;;;;12918142;23;20012;-82
2023/04/10 15:45:17;;;;;;;4.20;3.80;;;;;;;;;;12881119;23;20023;-82
2023/04/10 15:50:17;;;;;;;4.65;3.80;;;;;;;;;;12905377;23;20575;-84
2023/04/10 15:55:18;;;;;;;6.60;3.80;;;;;;;;;;12905886;23;20538;-81
2023/04/10 16:00:19;;;;;;;4.03;3.63;;;;;;;;;;12907609;23;20334;-80
2023/04/10 16:05:21;;;;;;;4.15;3.75;;;;;;;;;;12884241;22;20259;-79
2023/04/10 16:10:21;;;;;;;4.55;3.80;;;;;;;;;;12879902;23;20008;-78
2023/04/10 16:15:22;;;;;;;4.80;4.30;;;;;;;;;;12882244;23;20070;-78
2023/04/10 16:20:24;;;;;;;5.10;3.90;;;;;;;;;;12915419;23;20012;-78
2023/04/10 16:25:26;;;;;;;4.57;3.70;;;;;;;;;;12887440;23;20042;-80
2023/04/10 16:30:28;;;;;;;4.20;3.80;;;;;;;;;;12881188;23;20314;-80
2023/04/10 16:35:30;;;;;;;4.22;3.80;;;;;;;;;;12878645;23;20039;-79
2023/04/10 16:40:34;;;;;;;4.70;4.00;;;;;;;;;;12891126;23;20492;-78
2023/04/10 16:45:34;;;;;;;4.80;4.38;;;;;;;;;;12929612;23;20012;-79
2023/04/10 16:50:35;;;;;;;6.10;4.20;;;;;;;;;;12890764;23;20015;-82
2023/04/10 16:55:35;;;;;;;6.82;4.68;;;;;;;;;;12896205;22;20572;-81
2023/04/10 17:00:35;;;;;;;5.65;4.28;;;;;;;;;;12856200;22;20031;-79
2023/04/10 17:05:36;;;;;;;5.05;4.35;;;;;;;;;;12866934;22;20016;-83
2023/04/10 17:10:37;;;;;;;5.80;4.40;;;;;;;;;;12908142;23;20019;-81
2023/04/10 17:15:37;;;;;;;5.00;4.47;;;;;;;;;;12881117;23;20286;-81
2023/04/10 17:20:37;;;;;;;5.68;4.70;;;;;;;;;;12879418;23;20259;-81
2023/04/10 17:25:38;;;;;;;6.00;4.83;;;;;;;;;;12886288;23;20039;-84
2023/04/10 17:30:42;;;;;;;7.20;5.30;;;;;;;;;;12886727;22;20008;-80
2023/04/10 17:35:44;;;;;;;5.13;4.13;;;;;;;;;;12907979;23;20019;-81
2023/04/10 17:40:45;;;;;;;5.30;4.38;;;;;;;;;;12906071;23;20034;-79
2023/04/10 17:45:47;;;;;;;6.05;4.70;;;;;;;;;;12881008;23;20032;-81
2023/04/10 17:50:48;;;;;;;5.18;4.40;;;;;;;;;;12908137;22;20012;-82
2023/04/10 17:55:50;;;;;;;6.40;4.75;;;;;;;;;;12884105;23;20042;-83
2023/04/10 18:00:52;;;;;;;6.65;4.78;;;;;;;;;;12883764;23;20532;-78
2023/04/10 18:05:57;;;;;;;4.80;4.30;;;;;;;;;;12904218;22;20012;-81
2023/04/10 18:10:59;;;;;;;5.70;4.90;;;;;;;;;;12908306;23;20016;-82
2023/04/10 18:16:01;;;;;;;5.95;4.50;;;;;;;;;;12894386;23;20039;-80
2023/04/10 18:21:06;;;;;;;5.65;4.68;;;;;;;;;;12911196;23;20036;-83
2023/04/10 18:26:06;;;;;;;5.60;4.50;;;;;;;;;;12878817;23;20040;-80
2023/04/10 18:31:13;;;;;;;5.63;4.55;;;;;;;;;;12879046;23;20016;-80
2023/04/10 18:36:17;;;;;;;5.82;4.55;;;;;;;;;;12908245;23;20020;-82
2023/04/10 18:41:18;;;;;;;5.75;4.88;;;;;;;;;;12913593;22;20012;-79
2023/04/10 18:46:26;;;;;;;7.32;4.85;;;;;;;;;;12919364;23;20020;-80
2023/04/10 18:51:28;;;;;;;5.00;4.50;;;;;;;;;;12917895;23;20051;-80
2023/04/10 18:56:29;;;;;;;6.20;4.40;;;;;;;;;;12905876;23;20054;-78
2023/04/10 19:01:29;;;;;;;6.13;4.82;;;;;;;;;;12906634;23;20015;-82
2023/04/10 19:06:31;;;;;;;5.47;4.72;;;;;;;;;;12915933;22;20005;-82
2023/04/10 19:11:31;;;;;;;5.22;4.35;;;;;;;;;;12903487;23;20020;-81
2023/04/10 19:16:32;;;;;;;5.73;4.57;;;;;;;;;;12922174;23;20032;-82
2023/04/10 19:21:33;;;;;;;5.05;4.55;;;;;;;;;;12951665;23;20051;-81
2023/04/10 19:26:34;;;;;;;4.90;4.37;;;;;;;;;;12903831;23;20012;-78
2023/04/10 19:31:34;;;;;;;6.60;4.60;;;;;;;;;;12915847;23;20255;-78
2023/04/10 19:36:37;;;;;;;6.35;4.68;;;;;;;;;;12889575;22;20036;-81
2023/04/10 19:41:40;;;;;;;6.30;4.72;;;;;;;;;;12894364;23;20532;-82
2023/04/10 19:46:41;;;;;;;5.85;4.82;;;;;;;;;;12897406;23;20034;-83
2023/04/10 19:52:04;;;;;;;6.55;4.57;;;;;;;;;;12909973;23;20016;-78
2023/04/10 19:57:04;;;;;;;5.60;4.80;;;;;;;;;;12912125;23;20020;-78
2023/04/10 20:02:05;;;;;;;6.22;5.00;;;;;;;;;;12885477;22;20018;-81
2023/04/10 20:07:05;;;;;;;5.93;5.18;;;;;;;;;;12860190;22;20557;-77
2023/04/10 20:12:07;;;;;;;6.07;4.80;;;;;;;;;;12907182;23;20112;-77
2023/04/10 20:17:07;;;;;;;6.88;4.95;;;;;;;;;;12856389;23;20133;-80
2023/04/10 20:22:08;;;;;;;8.68;5.28;;;;;;;;;;12858607;23;20004;-79
2023/04/10 20:27:09;;;;;;;5.93;5.03;;;;;;;;;;12912486;23;20437;-80
2023/04/10 20:32:09;;;;;;;5.87;4.93;;;;;;;;;;12911267;23;20008;-79
2023/04/10 20:37:09;;;;;;;6.30;5.47;;;;;;;;;;12859603;23;20255;-80
2023/04/10 20:42:11;;;;;;;7.37;5.53;;;;;;;;;;12883263;23;20668;-77
2023/04/10 20:47:11;;;;;;;6.20;4.93;;;;;;;;;;12913865;23;20124;-78
2023/04/10 20:52:12;;;;;;;6.05;5.28;;;;;;;;;;12883131;23;20014;-80
2023/04/10 20:57:12;;;;;;;6.95;5.43;;;;;;;;;;12914977;23;20008;-78
2023/04/10 21:02:13;;;;;;;7.27;5.30;;;;;;;;;;12923551;22;20008;-78
2023/04/10 21:07:13;;;;;;;7.38;5.88;;;;;;;;;;12918778;22;20274;-79
2023/04/10 21:12:13;;;;;;;7.57;5.50;;;;;;;;;;12921037;23;20012;-77
2023/04/10 21:17:15;;;;;;;7.67;5.30;;;;;;;;;;12919047;22;20251;-80
2023/04/10 21:22:16;;;;;;;6.77;5.10;;;;;;;;;;12920058;23;20250;-84
2023/04/10 21:27:17;;;;;;;7.50;5.38;;;;;;;;;;12894574;23;20083;-82
2023/04/10 21:32:17;;;;;;;7.05;5.18;;;;;;;;;;12896267;23;20008;-83
2023/04/10 21:37:17;;;;;;;7.40;5.40;;;;;;;;;;12907752;23;20296;-83
2023/04/10 21:42:18;;;;;;;6.80;5.40;;;;;;;;;;12884378;23;20292;-82
2023/04/10 21:47:18;;;;;;;7.30;5.30;;;;;;;;;;12893584;22;20266;-81
2023/04/10 21:52:19;;;;;;;6.43;5.50;;;;;;;;;;12950404;23;20265;-85
2023/04/10 21:57:19;;;;;;;6.82;5.20;;;;;;;;;;12931276;23;20075;-87
2023/04/10 22:02:19;;;;;;;7.40;5.67;;;;;;;;;;12971890;22;20075;-84
2023/04/10 22:07:21;;;;;;;8.30;6.30;;;;;;;;;;12943924;22;20035;-83
2023/04/10 22:12:21;;;;;;;8.55;5.80;;;;;;;;;;12941547;22;20250;-85
2023/04/10 22:17:22;;;;;;;6.00;5.35;;;;;;;;;;12954701;23;20016;-79
2023/04/10 22:22:22;;;;;;;5.93;4.95;;;;;;;;;;12898592;23;20015;-80
2023/04/10 22:27:23;;;;;;;6.10;5.50;;;;;;;;;;12884387;23;20047;-81
2023/04/10 22:32:23;;;;;;;7.60;5.45;;;;;;;;;;12908371;23;20118;-78
2023/04/10 22:37:24;;;;;;;6.47;5.28;;;;;;;;;;12877042;23;20028;-78
2023/04/10 22:42:27;;;;;;;6.80;5.45;;;;;;;;;;12905034;23;20144;-79
2023/04/10 22:47:27;;;;;;;8.00;6.15;;;;;;;;;;12884033;23;20020;-80
2023/04/10 22:52:27;;;;;;;7.13;5.85;;;;;;;;;;12906703;22;20102;-79
2023/04/10 22:57:29;;;;;;;7.68;5.72;;;;;;;;;;12878407;23;20020;-80
2023/04/10 23:02:32;;;;;;;6.35;4.72;;;;;;;;;;12955541;23;20012;-79
2023/04/10 23:07:32;;;;;;;8.77;6.28;;;;;;;;;;12914715;22;20095;-80
2023/04/10 23:12:33;;;;;;;7.07;5.72;;;;;;;;;;12884717;23;20039;-80
2023/04/10 23:17:34;;;;;;;8.27;5.88;;;;;;;;;;12882652;23;20028;-83
2023/04/10 23:22:35;;;;;;;7.72;6.00;;;;;;;;;;12882133;23;20024;-80
2023/04/10 23:27:36;;;;;;;7.67;5.90;;;;;;;;;;12906496;22;20119;-80
2023/04/10 23:32:36;;;;;;;7.10;5.65;;;;;;;;;;12879370;23;20262;-77
2023/04/10 23:37:37;;;;;;;7.00;5.53;;;;;;;;;;12903077;23;20016;-76
2023/04/10 23:42:39;;;;;;;7.68;5.70;;;;;;;;;;12904606;23;20289;-79
2023/04/10 23:47:39;;;;;;;7.93;6.18;;;;;;;;;;12905634;23;20042;-78
2023/04/10 23:52:40;;;;;;;7.40;5.95;;;;;;;;;;12903006;22;20504;-77
2023/04/10 23:57:41;;;;;;;7.53;5.75;;;;;;;;;;12847269;23;20014;-80
